Time;durP1;ratioP1;P1;durP2;ratioP2;P2;SDS_P1;SDS_P2;PMS_P1;PMS_P2;Temp;Humidity;BMP_temperature;BMP_pressure;BME280_temperature;BME280_humidity;BME280_pressure;Samples;Min_cycle;Max_cycle;Signal;HPM_P1;HPM_P2
2022/08/08 00:00:14;;;;;;;7.65;5.00;;;14.20;99.90;;;13.30;100.00;102040.78;4967348;28;20056;-81
2022/08/08 00:02:58;;;;;;;6.05;4.05;;;14.30;99.90;;;13.32;100.00;102033.63;4963160;28;20431;-81
2022/08/08 00:05:49;;;;;;;10.55;5.30;;;14.30;99.90;;;13.34;100.00;102037.06;4949463;28;20049;-81
2022/08/08 00:08:35;;;;;;;10.45;5.28;;;14.30;99.90;;;13.37;100.00;102032.59;4950476;28;20054;-80
2022/08/08 00:11:38;;;;;;;16.88;5.07;;;14.30;99.90;;;13.37;100.00;102028.19;4932274;28;20037;-82
2022/08/08 00:14:37;;;;;;;13.82;5.72;;;14.30;99.90;;;13.38;100.00;102039.63;4941729;28;20031;-81
2022/08/08 00:17:33;;;;;;;8.00;4.47;;;14.30;99.90;;;13.40;100.00;102038.66;4958660;28;20535;-81
2022/08/08 00:20:10;;;;;;;11.43;5.18;;;14.40;99.90;;;13.42;100.00;102030.66;4959152;28;20046;-81
2022/08/08 00:22:45;;;;;;;10.32;4.82;;;14.40;99.90;;;13.45;100.00;102038.47;4965342;28;20029;-80
2022/08/08 00:25:37;;;;;;;9.55;5.32;;;14.40;99.90;;;13.46;100.00;102032.28;4950921;28;20092;-81
2022/08/08 00:28:11;;;;;;;9.98;5.38;;;14.40;99.90;;;13.45;100.00;102030.53;4960472;28;20673;-81
2022/08/08 00:30:43;;;;;;;17.80;5.53;;;14.40;99.90;;;13.45;100.00;102030.53;4952879;28;20049;-81
2022/08/08 00:33:20;;;;;;;8.82;4.95;;;14.40;99.90;;;13.46;100.00;102029.63;4950698;28;20042;-81
2022/08/08 00:35:56;;;;;;;;;;;14.40;99.90;;;13.45;100.00;102035.81;4944066;28;20486;-80
2022/08/08 00:38:45;;;;;;;8.77;4.45;;;14.40;99.90;;;13.45;100.00;102031.38;4946684;28;19913;-81
2022/08/08 00:42:22;;;;;;;5.90;4.00;;;14.40;99.90;;;13.49;100.00;102033.00;4954529;28;20041;-81
2022/08/08 00:44:59;;;;;;;7.55;4.40;;;14.40;99.90;;;13.50;100.00;102032.09;4942682;28;20402;-80
2022/08/08 00:47:52;;;;;;;11.63;4.80;;;14.40;99.90;;;13.56;100.00;102036.28;4928697;28;20070;-81
2022/08/08 00:51:07;;;;;;;12.88;5.32;;;14.50;99.90;;;13.57;100.00;102032.72;4931668;28;20047;-81
2022/08/08 00:54:19;;;;;;;7.47;4.95;;;14.50;99.90;;;13.58;100.00;102028.28;4960593;28;20057;-81
2022/08/08 00:57:18;;;;;;;7.63;4.45;;;14.50;99.90;;;13.58;100.00;102034.44;4963795;28;20053;-81
2022/08/08 01:00:11;;;;;;;10.15;4.40;;;14.50;99.90;;;13.60;100.00;102032.59;4916362;28;20528;-81
2022/08/08 01:03:04;;;;;;;12.32;5.28;;;14.50;99.90;;;13.62;100.00;102025.44;4971959;28;20092;-81
2022/08/08 01:06:20;;;;;;;9.43;4.68;;;14.50;99.90;;;13.65;100.00;102030.66;4944902;28;20045;-81
2022/08/08 01:09:46;;;;;;;8.07;4.43;;;14.60;99.90;;;13.67;100.00;102022.63;4922499;28;20435;-82
2022/08/08 01:12:47;;;;;;;7.13;4.55;;;14.60;99.90;;;13.67;100.00;102023.50;4941763;28;20084;-80
2022/08/08 01:16:01;;;;;;;9.32;3.97;;;14.60;99.90;;;13.68;100.00;102017.28;4956160;28;20030;-81
2022/08/08 01:19:05;;;;;;;7.68;4.65;;;14.60;99.90;;;13.70;100.00;102020.72;4978436;28;20041;-80
2022/08/08 01:22:15;;;;;;;11.23;5.20;;;14.60;99.90;;;13.71;100.00;102021.59;4984454;28;20043;-81
2022/08/08 01:24:56;;;;;;;14.02;4.90;;;14.60;99.90;;;13.73;100.00;102020.59;4935485;28;22219;-81
2022/08/08 01:27:55;;;;;;;10.05;4.57;;;14.70;99.90;;;13.76;100.00;102022.28;4926966;28;20473;-81
2022/08/08 01:30:53;;;;;;;10.70;4.93;;;14.70;99.90;;;13.77;100.00;102021.34;4935602;28;20032;-82
2022/08/08 01:34:15;;;;;;;8.88;4.65;;;14.70;99.90;;;13.79;100.00;102027.44;4968390;28;21256;-80
2022/08/08 01:37:10;;;;;;;7.72;4.40;;;14.70;99.90;;;13.81;100.00;102009.72;4979599;28;20480;-81
2022/08/08 01:40:03;;;;;;;9.18;4.60;;;14.70;99.90;;;13.83;100.00;102012.31;4979149;28;20502;-81
2022/08/08 01:43:08;;;;;;;9.00;4.32;;;14.70;99.90;;;13.84;100.00;102011.38;4953882;28;20045;-81
2022/08/08 01:46:23;;;;;;;9.25;4.57;;;14.80;99.90;;;13.84;100.00;102009.59;4950659;28;20053;-81
2022/08/08 01:49:43;;;;;;;10.15;4.47;;;14.70;99.90;;;13.85;100.00;102007.81;4880837;28;20731;-81
2022/08/08 01:52:26;;;;;;;11.05;4.80;;;14.70;99.90;;;13.85;100.00;102006.03;4937892;28;20117;-81
2022/08/08 01:55:13;;;;;;;7.57;4.28;;;14.80;99.90;;;13.86;100.00;102007.75;4967227;28;20037;-82
2022/08/08 01:57:47;;;;;;;;;;;14.80;99.90;;;13.83;100.00;102012.31;4972183;28;20053;-81
2022/08/08 02:00:32;;;;;;;7.22;4.80;;;14.70;99.90;;;13.79;100.00;102013.34;4946135;28;19961;-81
2022/08/08 02:03:40;;;;;;;6.55;4.68;;;14.70;99.90;;;13.77;100.00;102020.50;4916087;28;20762;-81
2022/08/08 02:06:20;;;;;;;7.03;4.28;;;14.60;99.90;;;13.73;100.00;102015.31;4969814;28;20048;-81
2022/08/08 02:09:50;;;;;;;6.82;3.55;;;14.70;99.90;;;13.71;100.00;102006.59;4947948;28;20086;-81
2022/08/08 02:13:01;;;;;;;7.40;4.95;;;14.60;99.90;;;13.65;100.00;102008.59;4939545;28;20035;-80
2022/08/08 02:15:44;;;;;;;8.93;4.95;;;14.50;99.90;;;13.58;100.00;102009.75;4955227;28;20034;-81
2022/08/08 02:18:42;;;;;;;9.10;5.63;;;14.50;99.90;;;13.56;100.00;102006.31;4975192;28;20041;-79
2022/08/08 02:24:17;;;;;;;8.73;4.85;;;14.50;99.90;;;13.53;100.00;102010.78;4940769;28;20117;-79
2022/08/08 02:27:26;;;;;;;11.50;5.68;;;14.50;99.90;;;13.54;100.00;102009.00;4980612;28;20029;-79
2022/08/08 02:30:17;;;;;;;11.18;5.60;;;14.50;99.90;;;13.54;100.00;102012.53;4951691;28;20033;-80
2022/08/08 02:33:05;;;;;;;9.10;5.60;;;14.50;99.90;;;13.54;100.00;102015.19;4940684;28;20039;-79
2022/08/08 02:36:18;;;;;;;9.20;5.72;;;14.50;99.90;;;13.53;100.00;102013.44;4937004;28;20094;-79
2022/08/08 02:39:12;;;;;;;9.80;4.88;;;14.50;99.90;;;13.52;100.00;102011.72;4928529;28;20078;-80
2022/08/08 02:42:27;;;;;;;10.70;5.35;;;14.50;99.90;;;13.51;100.00;102025.00;4951397;28;20116;-79
2022/08/08 02:45:29;;;;;;;8.48;5.65;;;14.40;99.90;;;13.48;100.00;102017.19;4943181;28;20046;-79
2022/08/08 02:48:31;;;;;;;10.60;5.32;;;14.40;99.90;;;13.46;100.00;102019.91;4947706;28;20457;-79
2022/08/08 02:51:36;;;;;;;7.47;4.85;;;14.40;99.90;;;13.43;100.00;102019.13;4941454;28;20065;-79
2022/08/08 02:54:32;;;;;;;7.93;4.53;;;14.40;99.90;;;13.40;100.00;102014.84;4956722;28;20046;-79
2022/08/08 02:57:45;;;;;;;8.82;4.88;;;14.30;99.90;;;13.34;100.00;102018.56;4971080;28;20038;-79
2022/08/08 03:00:47;;;;;;;12.93;5.30;;;14.30;99.90;;;13.27;100.00;102017.03;4955253;28;20047;-79
2022/08/08 03:03:53;;;;;;;9.30;4.20;;;14.20;99.90;;;13.18;100.00;102021.81;4971021;28;20030;-80
2022/08/08 03:07:22;;;;;;;7.18;2.50;;;14.10;99.90;;;13.07;100.00;102028.38;4948806;28;20036;-80
2022/08/08 03:10:28;;;;;;;7.80;4.45;;;14.00;99.90;;;13.01;100.00;102019.78;4966919;28;20045;-79
2022/08/08 03:13:02;;;;;;;353.77;13.65;;;13.90;99.90;;;12.99;100.00;102032.19;4965086;28;20548;-80
2022/08/08 03:15:55;;;;;;;10.52;5.80;;;13.90;99.90;;;12.92;100.00;102024.50;4968001;28;20029;-79
2022/08/08 03:18:49;;;;;;;11.90;4.88;;;13.90;99.90;;;12.84;100.00;102023.88;4969087;28;20037;-81
2022/08/08 03:21:15;;;;;;;13.88;5.43;;;13.80;99.90;;;12.80;100.00;102030.19;4956097;28;20034;-80
2022/08/08 03:23:41;;;;;;;8.93;5.03;;;13.80;99.90;;;12.79;100.00;102031.13;4957401;28;20041;-80
2022/08/08 03:26:07;;;;;;;10.32;6.00;;;13.80;99.90;;;12.79;100.00;102030.28;4912002;28;20033;-79
2022/08/08 03:28:58;;;;;;;9.15;5.85;;;13.80;99.90;;;12.80;100.00;102035.47;4958076;28;20045;-80
2022/08/08 03:34:12;;;;;;;14.68;6.25;;;13.70;99.90;;;12.76;100.00;102041.78;4971336;28;20040;-79
2022/08/08 03:36:43;;;;;;;12.85;6.47;;;13.70;99.90;;;12.73;100.00;102036.63;4953028;28;20598;-79
2022/08/08 03:39:13;;;;;;;10.23;5.90;;;13.70;99.90;;;12.69;100.00;102035.84;4951296;28;20034;-79
2022/08/08 03:41:48;;;;;;;16.17;7.18;;;13.70;99.90;;;12.68;100.00;102041.22;4926810;28;20041;-80
2022/08/08 03:44:14;;;;;;;13.98;6.38;;;13.70;99.90;;;12.68;100.00;102036.78;4970341;28;20038;-80
2022/08/08 03:46:48;;;;;;;12.05;7.25;;;13.60;99.90;;;12.65;100.00;102031.59;4921080;28;20091;-79
2022/08/08 03:49:21;;;;;;;15.02;6.82;;;13.60;99.90;;;12.64;100.00;102043.09;4963978;28;20104;-80
2022/08/08 03:51:53;;;;;;;12.57;7.28;;;13.60;99.90;;;12.63;100.00;102043.13;4937923;28;20569;-80
2022/08/08 03:54:20;;;;;;;12.93;7.00;;;13.60;99.90;;;12.62;100.00;102046.72;4993666;28;20029;-79
2022/08/08 03:56:46;;;;;;;15.77;7.10;;;13.60;99.90;;;12.62;100.00;102046.72;4954043;28;20034;-79
2022/08/08 03:59:12;;;;;;;15.95;7.32;;;13.60;99.90;;;12.62;100.00;102044.06;4939176;28;20038;-80
2022/08/08 04:01:39;;;;;;;;;;;13.60;99.90;;;12.52;100.00;102044.34;4974238;28;20030;-79
2022/08/08 04:04:17;;;;;;;15.23;7.35;;;13.50;99.90;;;12.50;100.00;102040.94;4946280;28;19952;-80
2022/08/08 04:06:56;;;;;;;18.98;8.88;;;13.50;99.90;;;12.55;100.00;102050.44;4950009;28;20533;-79
2022/08/08 04:09:22;;;;;;;13.48;8.13;;;13.60;99.90;;;12.57;100.00;102054.78;4957394;28;20081;-79
2022/08/08 04:11:53;;;;;;;17.15;9.35;;;13.60;99.90;;;12.61;100.00;102047.59;4971355;28;20029;-79
2022/08/08 04:14:19;;;;;;;17.92;7.82;;;13.60;99.90;;;12.63;100.00;102054.56;4930263;28;20026;-79
2022/08/08 04:16:45;;;;;;;14.13;7.35;;;13.60;99.90;;;12.64;100.00;102050.16;4945523;28;20140;-80
2022/08/08 04:19:11;;;;;;;;;;;13.60;99.90;;;12.65;100.00;102054.53;4965743;28;20084;-80
2022/08/08 04:21:37;;;;;;;13.57;7.75;;;13.60;99.90;;;12.65;100.00;102049.22;4931870;28;19919;-79
2022/08/08 04:24:02;;;;;;;;;;;13.60;99.90;;;12.67;100.00;102052.69;4966722;28;20037;-79
2022/08/08 04:26:33;;;;;;;14.05;7.35;;;13.60;99.90;;;12.66;100.00;102050.97;4957571;28;19925;-79
2022/08/08 04:28:59;;;;;;;12.90;7.68;;;13.60;99.90;;;12.76;100.00;102059.44;4981924;28;20133;-79
2022/08/08 04:31:25;;;;;;;17.48;8.02;;;13.70;99.90;;;12.83;100.00;102059.19;4978951;28;20047;-80
2022/08/08 04:33:51;;;;;;;12.15;7.15;;;13.70;99.90;;;12.92;100.00;102058.00;4950507;28;20517;-79
2022/08/08 04:36:16;;;;;;;;;;;13.70;99.90;;;13.02;100.00;102066.44;4943586;28;20038;-80
2022/08/08 04:38:42;;;;;;;11.05;6.78;;;13.90;99.90;;;13.09;100.00;102060.06;4988345;28;20305;-80
2022/08/08 04:41:10;;;;;;;14.00;7.03;;;14.00;99.90;;;13.21;100.00;102066.66;4978244;28;20036;-80
2022/08/08 04:43:39;;;;;;;9.77;6.15;;;14.10;99.90;;;13.34;100.00;102068.81;4933078;28;20109;-80
2022/08/08 04:46:05;;;;;;;10.85;5.93;;;14.20;99.90;;;13.49;100.00;102066.53;4956804;28;20040;-80
2022/08/08 04:48:31;;;;;;;12.98;6.43;;;15.00;99.90;;;16.24;100.00;102069.78;4950054;28;20049;-80
2022/08/08 04:50:57;;;;;;;10.38;5.25;;;16.50;99.90;;;18.18;88.78;102076.41;4942981;28;20066;-79
2022/08/08 04:53:23;;;;;;;7.57;4.80;;;17.20;99.90;;;18.14;82.76;102082.84;4951236;28;20033;-81
2022/08/08 04:55:54;;;;;;;10.20;5.25;;;17.80;99.90;;;18.23;78.84;102082.34;4971288;28;20123;-80
2022/08/08 04:58:20;;;;;;;9.93;5.10;;;18.60;99.90;;;20.36;72.48;102095.06;4932151;28;20040;-79
2022/08/08 05:00:45;;;;;;;8.95;4.63;;;20.00;99.90;;;23.15;62.89;102100.06;4933109;28;20050;-80
2022/08/08 05:03:11;;;;;;;;;;;20.20;99.90;;;25.50;56.69;102106.66;4963156;28;20096;-80
2022/08/08 05:05:37;;;;;;;10.32;3.85;;;23.20;99.90;;;26.99;51.72;102106.56;4956494;28;20301;-79
2022/08/08 05:08:03;;;;;;;8.57;4.28;;;24.30;99.90;;;27.34;49.29;102118.59;4938978;28;20645;-80
2022/08/08 05:10:29;;;;;;;9.00;3.63;;;25.10;99.90;;;27.79;48.00;102118.66;4969568;28;20568;-80
2022/08/08 05:12:56;;;;;;;5.57;3.08;;;25.30;99.60;;;27.28;49.06;102122.75;4981187;22;20042;-80
2022/08/08 05:15:25;;;;;;;6.90;3.30;;;25.50;99.20;;;28.02;48.10;102145.34;4944039;28;20033;-80
2022/08/08 05:17:51;;;;;;;9.60;3.67;;;25.90;98.10;;;28.78;46.68;102142.22;4951506;28;20122;-80
2022/08/08 05:20:17;;;;;;;10.10;3.97;;;26.40;97.60;;;29.36;45.64;102150.78;4916758;28;20038;-80
2022/08/08 05:22:42;;;;;;;;;;;26.80;97.60;;;30.49;43.44;102166.84;4962595;28;20537;-81
2022/08/08 05:25:08;;;;;;;5.32;3.30;;;27.70;96.90;;;31.31;43.14;102166.81;4995761;28;19983;-80
2022/08/08 05:27:34;;;;;;;;;;;27.70;97.60;;;32.81;40.29;102167.59;4948394;28;20072;-80
2022/08/08 05:30:10;;;;;;;6.75;3.00;;;29.20;94.60;;;33.50;39.25;102167.44;4935654;28;19917;-79
2022/08/08 05:32:37;;;;;;;8.30;3.33;;;30.00;93.80;;;34.43;38.09;102176.81;4944603;23;20045;-81
2022/08/08 05:35:11;;;;;;;7.90;3.35;;;30.40;93.00;;;34.37;38.37;102193.16;4997262;28;20059;-81
2022/08/08 05:37:41;;;;;;;4.57;2.85;;;30.90;91.80;;;35.11;37.08;102198.25;4966108;28;20041;-81
2022/08/08 05:40:08;;;;;;;8.32;3.28;;;31.30;91.00;;;35.46;36.02;102201.88;4979403;28;20034;-81
2022/08/08 05:42:50;;;;;;;6.32;3.28;;;31.70;89.60;;;35.95;34.09;102202.78;4997266;28;20138;-81
2022/08/08 05:45:18;;;;;;;8.35;3.45;;;32.10;88.40;;;36.41;33.74;102215.81;5008960;28;20497;-81
2022/08/08 05:47:45;;;;;;;5.55;3.38;;;32.50;86.50;;;36.57;33.58;102209.09;5021222;28;20523;-81
2022/08/08 05:50:11;;;;;;;13.38;3.10;;;32.50;84.50;;;35.81;34.92;102223.81;5036331;28;20040;-81
2022/08/08 05:52:38;;;;;;;5.10;2.80;;;32.20;84.90;;;35.25;35.13;102230.19;5005965;23;20785;-80
2022/08/08 05:55:08;;;;;;;8.18;2.58;;;32.10;85.30;;;35.02;34.96;102235.03;4989798;28;20113;-81
2022/08/08 05:57:36;;;;;;;5.05;2.80;;;31.40;85.10;;;33.54;36.85;102228.81;4965194;28;20349;-81
2022/08/08 06:00:09;;;;;;;7.55;2.60;;;31.30;85.70;;;34.21;36.53;102238.81;4938586;28;20620;-81
2022/08/08 06:05:25;;;;;;;3.67;2.42;;;32.30;85.20;;;36.03;33.76;102257.44;4992636;28;20143;-81
2022/08/08 06:07:51;;;;;;;6.15;2.88;;;32.60;84.00;;;36.05;33.93;102251.72;4967298;28;20080;-81
2022/08/08 06:10:22;;;;;;;6.03;2.70;;;33.00;82.80;;;36.30;33.64;102257.56;4985746;28;20022;-81
2022/08/08 06:12:50;;;;;;;5.53;3.10;;;32.80;81.20;;;34.48;35.80;102255.50;4954792;28;20036;-79
2022/08/08 06:15:16;;;;;;;4.03;2.28;;;32.70;84.40;;;35.27;34.92;102260.94;4972461;28;20048;-81
2022/08/08 06:17:42;;;;;;;4.05;2.42;;;32.90;82.20;;;35.74;34.39;102253.91;4969646;28;20092;-81
2022/08/08 06:20:14;;;;;;;4.70;2.67;;;33.20;80.30;;;36.01;32.91;102259.53;4958738;28;20041;-80
2022/08/08 06:22:43;;;;;;;8.48;2.58;;;33.20;79.20;;;35.17;33.90;102268.66;4984283;28;20038;-80
2022/08/08 06:25:09;;;;;;;6.95;2.83;;;33.50;81.70;;;36.06;33.75;102267.13;4931709;28;20044;-81
2022/08/08 06:27:37;;;;;;;3.47;2.22;;;33.40;78.40;;;35.26;33.75;102261.97;4990935;28;20069;-80
2022/08/08 06:30:08;;;;;;;4.15;2.30;;;33.60;77.00;;;35.64;33.25;102264.41;4974046;28;20048;-81
2022/08/08 06:32:59;;;;;;;2.83;2.00;;;34.10;76.40;;;36.76;31.46;102265.06;4941063;28;20502;-80
2022/08/08 06:35:29;;;;;;;6.43;2.40;;;34.80;74.40;;;37.27;30.36;102264.47;4960249;28;20388;-80
2022/08/08 06:38:05;;;;;;;3.97;2.20;;;35.40;70.60;;;37.83;29.07;102265.88;4961808;28;20116;-81
2022/08/08 06:40:36;;;;;;;5.20;2.30;;;35.80;71.00;;;38.01;29.20;102265.16;4989586;28;20494;-80
2022/08/08 06:43:10;;;;;;;3.05;1.90;;;35.80;66.80;;;37.00;29.04;102271.88;4981006;28;20034;-81
2022/08/08 06:45:38;;;;;;;3.92;1.90;;;35.10;68.80;;;35.26;32.08;102270.19;4972638;28;20048;-81
2022/08/08 06:48:04;;;;;;;4.05;1.98;;;35.10;69.90;;;35.78;30.96;102267.22;5002967;28;20037;-81
2022/08/08 06:50:41;;;;;;;3.35;2.00;;;34.30;71.10;;;34.27;32.49;102267.25;4960092;28;20036;-81
2022/08/08 06:53:08;;;;;;;4.60;2.10;;;33.70;71.70;;;33.67;33.80;102264.56;4964859;28;20133;-81
2022/08/08 06:55:35;;;;;;;4.50;1.80;;;34.00;71.70;;;34.95;32.48;102264.19;4962106;28;20858;-81
2022/08/08 06:58:10;;;;;;;4.38;2.28;;;33.60;73.30;;;33.81;32.55;102262.84;4959698;28;20053;-81
2022/08/08 07:00:44;;;;;;;5.05;1.90;;;33.10;67.60;;;32.76;33.33;102255.41;4961842;28;20037;-81
2022/08/08 07:03:17;;;;;;;3.85;1.73;;;33.40;68.30;;;34.15;32.05;102266.91;4958945;28;20025;-81
2022/08/08 07:05:49;;;;;;;3.05;2.00;;;33.90;68.50;;;34.91;31.52;102266.50;5003766;28;20471;-81
2022/08/08 07:08:27;;;;;;;4.35;1.95;;;34.50;69.50;;;35.65;30.15;102265.22;4967037;28;20166;-81
2022/08/08 07:11:01;;;;;;;3.78;1.80;;;35.10;66.20;;;36.14;28.80;102276.06;4976786;28;20143;-80
2022/08/08 07:13:39;;;;;;;2.63;1.80;;;35.60;66.00;;;36.72;28.58;102277.53;4995029;23;20040;-81
2022/08/08 07:16:19;;;;;;;5.75;2.25;;;35.90;66.10;;;36.62;28.65;102280.66;4956220;28;20051;-81
2022/08/08 07:19:29;;;;;;;3.38;1.80;;;36.10;61.70;;;36.09;27.19;102283.16;5020418;28;20115;-81
2022/08/08 07:22:09;;;;;;;5.25;2.00;;;35.80;61.50;;;35.44;28.81;102285.28;5001571;28;20066;-81
2022/08/08 07:25:02;;;;;;;2.88;1.67;;;35.90;63.80;;;35.81;27.37;102275.88;4973211;28;20112;-81
2022/08/08 07:27:36;;;;;;;4.85;1.80;;;34.90;59.80;;;33.42;29.07;102279.47;4975983;28;20073;-82
2022/08/08 07:30:08;;;;;;;2.95;1.65;;;34.50;62.60;;;33.54;31.18;102269.75;4976455;28;20037;-81
2022/08/08 07:32:34;;;;;;;5.30;1.70;;;34.60;62.40;;;34.32;29.74;102275.72;4978662;28;20025;-81
2022/08/08 07:35:03;;;;;;;6.70;1.80;;;34.60;60.60;;;33.89;30.30;102273.69;4988825;28;20045;-81
2022/08/08 07:37:34;;;;;;;2.97;1.58;;;34.90;60.90;;;34.38;29.24;102266.75;5003571;28;20032;-81
2022/08/08 07:40:01;;;;;;;2.33;1.75;;;34.60;61.60;;;33.71;29.97;102267.75;4978558;28;20032;-81
2022/08/08 07:42:28;;;;;;;4.07;2.08;;;34.80;64.10;;;34.66;29.35;102275.09;4989793;28;20049;-81
2022/08/08 07:44:54;;;;;;;4.05;1.60;;;34.90;60.90;;;34.19;29.10;102268.22;4973913;28;20140;-81
2022/08/08 07:47:29;;;;;;;4.57;1.75;;;35.30;61.60;;;35.06;28.67;102278.22;4955857;28;20045;-80
2022/08/08 07:49:55;;;;;;;4.50;2.20;;;;;;;35.32;28.62;102283.09;4960455;28;20041;-81
2022/08/08 07:52:47;;;;;;;4.88;1.73;;;35.60;62.90;;;35.54;28.39;102286.63;4960373;22;20048;-81
2022/08/08 07:55:44;;;;;;;;;;;;;;;;;;;;;
2022/08/08 07:58:38;;;;;;;3.33;1.60;;;35.70;61.80;;;35.17;27.90;102289.72;4988577;28;20520;-81
2022/08/08 08:01:10;;;;;;;2.72;1.55;;;35.50;59.60;;;34.97;29.00;102286.75;4960078;28;20065;-81
2022/08/08 08:03:43;;;;;;;3.38;1.85;;;35.60;62.60;;;34.78;27.63;102291.84;4984596;28;20096;-81
2022/08/08 08:06:12;;;;;;;4.70;1.90;;;35.20;61.20;;;34.47;29.33;102294.81;5021171;28;20043;-81
2022/08/08 08:08:49;;;;;;;5.20;1.90;;;34.10;60.80;;;32.57;30.77;102281.31;5009506;28;20555;-80
2022/08/08 08:11:18;;;;;;;4.15;2.00;;;33.30;63.50;;;31.84;31.78;102276.97;5001053;28;20540;-80
2022/08/08 08:13:56;;;;;;;2.90;1.58;;;33.30;63.80;;;32.62;31.55;102270.69;4957940;28;20533;-81
2022/08/08 08:16:25;;;;;;;7.45;1.90;;;33.30;63.60;;;33.01;31.07;102272.44;5004251;28;20029;-81
2022/08/08 08:19:00;;;;;;;6.45;2.10;;;33.50;61.70;;;33.05;30.14;102268.31;5003686;28;20036;-80
2022/08/08 08:21:42;;;;;;;6.63;2.15;;;33.70;63.30;;;33.67;30.13;102267.28;4972775;28;20060;-81
2022/08/08 08:24:08;;;;;;;5.80;2.08;;;33.90;62.20;;;33.80;29.74;102272.09;4966594;28;20052;-80
2022/08/08 08:26:45;;;;;;;5.72;2.08;;;34.00;63.40;;;33.70;30.68;102264.16;4993724;28;20048;-80
2022/08/08 08:29:10;;;;;;;;;;;34.00;64.60;;;33.83;30.32;102265.41;5020974;28;20037;-80
2022/08/08 08:31:36;;;;;;;3.53;1.70;;;33.90;62.10;;;33.60;29.82;102266.31;4990857;28;19970;-80
2022/08/08 08:34:02;;;;;;;7.38;1.95;;;33.70;61.40;;;33.02;30.19;102260.50;5029344;28;20125;-79
2022/08/08 08:36:28;;;;;;;3.17;1.80;;;33.50;63.30;;;32.93;30.80;102258.88;4970511;28;20546;-80
2022/08/08 08:38:59;;;;;;;2.90;2.40;;;32.80;64.80;;;31.87;32.30;102254.81;4981677;28;20036;-79
2022/08/08 08:41:27;;;;;;;5.55;2.05;;;32.20;64.90;;;31.10;33.40;102247.09;5004549;28;20424;-80
2022/08/08 08:43:53;;;;;;;5.15;1.70;;;31.10;66.60;;;29.94;35.32;102242.38;4963667;28;20025;-79
2022/08/08 08:46:20;;;;;;;8.15;2.30;;;30.90;68.80;;;30.45;35.61;102243.28;4997196;28;20029;-80
2022/08/08 08:48:46;;;;;;;5.50;2.30;;;30.50;69.00;;;29.76;36.33;102236.16;4975618;28;20522;-80
2022/08/08 08:51:18;;;;;;;6.38;2.17;;;30.30;70.60;;;29.98;35.70;102235.63;4964804;28;20092;-79
2022/08/08 08:53:55;;;;;;;6.85;2.17;;;30.40;71.10;;;30.17;36.03;102231.78;4971978;28;20040;-81
2022/08/08 08:56:24;;;;;;;8.60;2.20;;;30.30;70.60;;;29.88;36.60;102223.19;4991144;28;20726;-80
2022/08/08 08:58:51;;;;;;;3.95;2.13;;;30.00;70.10;;;29.42;37.13;102220.69;4993211;28;20107;-78
2022/08/08 09:01:25;;;;;;;5.00;2.20;;;29.40;71.60;;;27.81;37.85;102208.66;5013846;28;20034;-79
2022/08/08 09:03:55;;;;;;;6.88;2.10;;;28.80;72.20;;;27.74;39.50;102214.84;4982123;28;20029;-79
2022/08/08 09:06:31;;;;;;;3.85;2.05;;;28.70;73.50;;;27.94;38.48;102212.94;4995366;28;20067;-79
2022/08/08 09:09:26;;;;;;;3.80;2.30;;;28.60;72.80;;;28.03;38.02;102212.00;5004850;28;20025;-79
2022/08/08 09:11:54;;;;;;;5.38;2.40;;;28.60;74.00;;;28.14;38.17;102209.13;5001254;28;20029;-80
2022/08/08 09:14:28;;;;;;;5.72;2.58;;;28.60;72.40;;;28.11;38.08;102208.56;4994511;28;20068;-79
2022/08/08 09:16:54;;;;;;;7.80;2.30;;;28.40;72.40;;;27.85;37.32;102203.84;4955815;28;20041;-80
2022/08/08 09:19:25;;;;;;;5.72;2.20;;;28.10;70.80;;;27.15;37.76;102201.44;4942588;28;20041;-79
2022/08/08 09:21:58;;;;;;;6.07;2.15;;;27.70;75.30;;;26.64;41.02;102201.75;4976473;28;20042;-79
2022/08/08 09:24:28;;;;;;;3.78;1.83;;;27.70;74.60;;;27.17;39.85;102204.84;4979047;28;20034;-79
2022/08/08 09:27:10;;;;;;;3.55;2.20;;;27.90;74.50;;;27.77;39.69;102201.84;4994438;28;20034;-79
2022/08/08 09:30:02;;;;;;;4.65;2.03;;;28.00;75.70;;;27.56;38.67;102191.25;4996945;28;20159;-79
2022/08/08 09:32:38;;;;;;;7.30;2.10;;;28.20;76.50;;;27.89;40.06;102183.59;5001354;28;20033;-79
2022/08/08 09:35:13;;;;;;;3.30;2.15;;;28.30;76.70;;;27.90;40.14;102193.41;5030075;28;20124;-79
2022/08/08 09:37:53;;;;;;;8.93;2.00;;;28.30;73.80;;;27.66;38.53;102188.50;4993314;28;20107;-80
2022/08/08 09:40:25;;;;;;;4.38;2.30;;;28.20;75.60;;;27.67;39.88;102190.22;5004801;28;20052;-78
2022/08/08 09:43:33;;;;;;;7.28;2.05;;;28.10;76.10;;;27.55;39.45;102181.44;4978304;28;20156;-79
2022/08/08 09:46:10;;;;;;;5.72;2.20;;;27.50;75.10;;;26.45;40.99;102176.38;4992232;28;20402;-80
2022/08/08 09:48:37;;;;;;;5.85;2.42;;;27.10;77.60;;;26.07;42.23;102182.56;5015616;28;20033;-79
2022/08/08 09:51:08;;;;;;;7.40;2.08;;;26.70;75.70;;;25.73;41.26;102185.56;4993366;28;20037;-80
2022/08/08 09:53:55;;;;;;;4.00;2.08;;;26.10;80.90;;;25.01;44.45;102187.25;5000710;28;20041;-80
2022/08/08 09:56:34;;;;;;;3.22;2.00;;;26.10;82.30;;;25.36;44.55;102178.84;4974201;28;20028;-80
2022/08/08 09:59:07;;;;;;;8.80;2.47;;;26.10;82.00;;;25.66;43.83;102187.06;4994767;28;20035;-78
2022/08/08 10:01:41;;;;;;;3.42;2.00;;;26.10;80.00;;;25.62;42.67;102180.25;5017553;28;20066;-79
2022/08/08 10:04:18;;;;;;;4.18;2.00;;;26.10;80.00;;;25.71;43.02;102177.59;4998243;28;20037;-80
2022/08/08 10:06:46;;;;;;;17.35;2.55;;;26.20;78.50;;;25.76;43.41;102172.63;4988568;28;20037;-79
2022/08/08 10:09:12;;;;;;;4.25;2.00;;;26.30;79.10;;;26.00;42.11;102179.56;4978071;28;20402;-80
2022/08/08 10:11:50;;;;;;;5.18;2.20;;;26.40;79.10;;;26.25;42.09;102174.66;4955439;28;20036;-79
2022/08/08 10:14:16;;;;;;;5.10;1.98;;;26.70;78.20;;;26.58;41.61;102170.75;5019362;28;20044;-79
2022/08/08 10:16:42;;;;;;;4.32;2.10;;;27.00;80.50;;;26.82;41.16;102172.16;4997905;28;20040;-79
2022/08/08 10:19:10;;;;;;;7.68;2.05;;;26.70;77.60;;;26.03;41.89;102175.75;4991373;28;20367;-80
2022/08/08 10:21:38;;;;;;;4.40;2.10;;;26.70;78.10;;;26.15;42.18;102177.31;5013115;28;20052;-79
2022/08/08 10:24:17;;;;;;;5.32;2.10;;;;;;;26.01;41.04;102169.63;4963013;23;20636;-79
2022/08/08 10:27:03;;;;;;;8.00;2.00;;;26.20;77.80;;;25.14;43.40;102160.94;4932020;28;20050;-79
2022/08/08 10:29:56;;;;;;;4.25;2.20;;;25.90;79.70;;;24.97;44.56;102159.69;5007179;28;20085;-80
2022/08/08 10:32:39;;;;;;;4.78;2.22;;;25.40;78.30;;;24.16;43.60;102155.69;4935031;28;20121;-80
2022/08/08 10:35:19;;;;;;;3.08;2.17;;;25.20;79.50;;;24.10;44.79;102148.97;4951129;28;20046;-80
2022/08/08 10:38:13;;;;;;;4.75;2.28;;;25.00;83.50;;;24.30;46.60;102159.94;4935703;28;20042;-79
2022/08/08 10:40:49;;;;;;;2.10;1.73;;;25.00;80.20;;;24.32;44.72;102161.53;4950387;28;20467;-80
2022/08/08 10:43:38;;;;;;;4.72;1.90;;;25.00;81.10;;;24.19;43.71;102157.25;4949925;23;20509;-80
2022/08/08 10:46:24;;;;;;;6.00;2.28;;;25.00;82.20;;;24.25;45.26;102160.28;4905466;28;20042;-80
2022/08/08 10:48:58;;;;;;;4.22;1.77;;;24.90;81.90;;;24.58;44.63;102155.84;4952414;28;20068;-80
2022/08/08 10:51:38;;;;;;;7.18;1.92;;;25.20;80.50;;;24.84;42.40;102155.47;4988064;28;20422;-80
2022/08/08 10:54:04;;;;;;;8.57;1.88;;;25.30;77.70;;;24.90;41.85;102155.81;4923265;28;20183;-80
2022/08/08 10:56:34;;;;;;;9.07;2.25;;;25.40;81.50;;;25.02;43.29;102159.28;4958646;28;20039;-80
2022/08/08 10:59:06;;;;;;;5.22;2.20;;;25.40;82.30;;;24.88;44.53;102167.69;4959336;28;20055;-80
2022/08/08 11:01:35;;;;;;;4.80;2.00;;;25.40;81.80;;;24.83;44.72;102168.09;4926019;28;20438;-80
2022/08/08 11:04:07;;;;;;;8.80;1.73;;;25.40;82.70;;;24.87;44.40;102169.53;4976712;28;20488;-79
2022/08/08 11:06:40;;;;;;;5.65;2.00;;;25.30;84.20;;;24.62;45.81;102162.69;4969039;28;20034;-81
2022/08/08 11:09:13;;;;;;;7.18;1.90;;;25.20;83.40;;;24.57;45.71;102159.50;4962744;28;20042;-80